createdAt,value
2022-08-25T00:00:24.810Z,100577.19
2022-08-25T00:05:32.251Z,100572.72
2022-08-25T00:10:42.454Z,100574.53
2022-08-25T00:15:46.740Z,100576.41
2022-08-25T00:20:50.135Z,100574.94
2022-08-25T00:25:55.321Z,100574.78
2022-08-25T00:30:58.659Z,100565.16
2022-08-25T00:36:01.722Z,100568.84
2022-08-25T00:41:08.569Z,100576.66
2022-08-25T00:46:12.620Z,100572.97
2022-08-25T00:51:19.141Z,100572.97
2022-08-25T00:56:23.848Z,100569.06
2022-08-25T01:01:26.830Z,100573.19
2022-08-25T01:06:31.223Z,100564.59
2022-08-25T01:11:35.394Z,100562.13
2022-08-25T01:16:39.200Z,100558.44
2022-08-25T01:21:46.531Z,100550.84
2022-08-25T01:26:49.267Z,100539.53
2022-08-25T01:31:57.709Z,100540.81
2022-08-25T01:37:02.351Z,100545.94
2022-08-25T01:42:20.260Z,100542.44
2022-08-25T01:47:23.989Z,100540.81
2022-08-25T01:52:30.726Z,100540.56
2022-08-25T01:57:33.590Z,100545.91
2022-08-25T02:02:36.324Z,100535.66
2022-08-25T02:07:44.709Z,100539.56
2022-08-25T02:12:47.539Z,100536.03
2022-08-25T02:17:50.321Z,100540.81
2022-08-25T02:22:56.963Z,100532.16
2022-08-25T02:28:00.230Z,100536.88
2022-08-25T02:33:03.039Z,100525.59
2022-08-25T02:38:07.866Z,100530.72
2022-08-25T02:43:10.673Z,100515.97
2022-08-25T02:48:13.560Z,100518.81
2022-08-25T02:53:18.163Z,100513.69
2022-08-25T02:58:21.289Z,100516.38
2022-08-25T03:03:24.303Z,100514.09
2022-08-25T03:08:28.598Z,100524.38
2022-08-25T03:13:32.235Z,100521.69
2022-08-25T03:18:35.279Z,100525.78
2022-08-25T03:23:39.903Z,100515.53
2022-08-25T03:28:42.914Z,100518.00
2022-08-25T03:33:46.106Z,100521.25
2022-08-25T03:38:50.909Z,100521.25
2022-08-25T03:43:53.774Z,100528.84
2022-08-25T03:48:57.196Z,100518.41
2022-08-25T03:54:01.929Z,100513.69
2022-08-25T03:59:04.962Z,100511.00
2022-08-25T04:04:08.939Z,100511.19
2022-08-25T04:09:13.554Z,100508.53
2022-08-25T04:14:16.604Z,100511.19
2022-08-25T04:19:20.203Z,100500.31
2022-08-25T04:24:24.305Z,100506.03
2022-08-25T04:29:27.471Z,100503.19
2022-08-25T04:34:31.555Z,100506.88
2022-08-25T04:39:36.051Z,100516.75
2022-08-25T04:44:39.023Z,100514.66
2022-08-25T04:49:42.139Z,100512.63
2022-08-25T04:54:46.361Z,100517.56
2022-08-25T04:59:49.310Z,100526.19
2022-08-25T05:04:52.341Z,100520.22
2022-08-25T05:09:56.433Z,100525.38
2022-08-25T05:15:19.756Z,100523.13
2022-08-25T05:20:22.498Z,100515.94
2022-08-25T05:25:26.548Z,100511.84
2022-08-25T05:30:29.335Z,100511.25
2022-08-25T05:35:32.213Z,100506.31
2022-08-25T05:40:36.414Z,100503.84
2022-08-25T05:45:39.525Z,100497.47
2022-08-25T05:50:42.576Z,100502.00
2022-08-25T05:55:46.858Z,100511.44
2022-08-25T06:00:49.673Z,100507.72
2022-08-25T06:05:52.559Z,100513.66
2022-08-25T06:10:56.625Z,100513.84
2022-08-25T06:16:01.089Z,100511.56
2022-08-25T06:21:09.469Z,100509.88
2022-08-25T06:26:20.733Z,100506.38
2022-08-25T06:31:24.548Z,100512.47
2022-08-25T06:36:27.359Z,100514.31
2022-08-25T06:41:36.650Z,100517.53
2022-08-25T06:46:40.122Z,100518.75
2022-08-25T06:51:42.839Z,100504.91
2022-08-25T06:56:47.383Z,100496.53
2022-08-25T07:01:52.847Z,100487.00
2022-08-25T07:06:55.884Z,100497.81
2022-08-25T07:12:00.079Z,100490.50
2022-08-25T07:17:02.852Z,100493.84
2022-08-25T07:22:13.410Z,100502.00
2022-08-25T07:27:17.717Z,100506.16
2022-08-25T07:32:20.464Z,100512.59
2022-08-25T07:37:47.774Z,100505.63
2022-08-25T07:42:49.630Z,100495.22
2022-08-25T07:47:53.781Z,100500.94
2022-08-25T07:52:57.067Z,100502.50
2022-08-25T07:58:01.584Z,100494.63
2022-08-25T08:03:05.827Z,100499.44
2022-08-25T08:08:10.868Z,100488.09
2022-08-25T08:13:18.368Z,100486.34
2022-08-25T08:18:21.251Z,100494.41
2022-08-25T08:23:27.681Z,100485.56
2022-08-25T08:28:31.755Z,100473.09
2022-08-25T08:33:35.587Z,100470.94
2022-08-25T08:38:44.180Z,100471.75
2022-08-25T08:43:51.707Z,100467.44
2022-08-25T08:49:02.489Z,100457.25
2022-08-25T08:54:15.389Z,100450.97
2022-08-25T08:59:21.639Z,100438.09
2022-08-25T09:04:28.855Z,100439.94
2022-08-25T09:09:35.937Z,100436.53
2022-08-25T09:14:54.024Z,100433.38
2022-08-25T09:20:18.662Z,100436.88
2022-08-25T09:25:48.824Z,100429.00
2022-08-25T09:30:56.466Z,100414.06
2022-08-25T09:35:59.761Z,100407.38
2022-08-25T09:41:08.402Z,100414.78
2022-08-25T09:46:14.208Z,100412.81
2022-08-25T09:51:26.575Z,100406.44
2022-08-25T09:56:31.275Z,100405.25
2022-08-25T10:01:36.173Z,100398.22
2022-08-25T10:06:45.881Z,100397.19
2022-08-25T10:11:49.159Z,100385.84
2022-08-25T10:16:54.469Z,100384.78
2022-08-25T10:22:08.523Z,100375.50
2022-08-25T10:27:22.491Z,100364.75
2022-08-25T10:32:34.883Z,100358.34
2022-08-25T10:37:44.860Z,100344.72
2022-08-25T10:42:56.637Z,100350.25
2022-08-25T10:48:14.454Z,100340.53
2022-08-25T10:53:36.694Z,100336.88
2022-08-25T10:59:04.500Z,100337.28
2022-08-25T11:04:11.530Z,100328.34
2022-08-25T11:09:17.380Z,100321.03
2022-08-25T11:14:22.736Z,100315.78
2022-08-25T11:19:32.787Z,100314.53
2022-08-25T11:24:44.101Z,100315.94
2022-08-25T11:29:59.438Z,100306.13
2022-08-25T11:35:08.022Z,100307.44
2022-08-25T11:40:29.771Z,100294.28
2022-08-25T11:45:54.131Z,100286.03
2022-08-25T11:51:04.875Z,100282.34
2022-08-25T11:56:09.677Z,100274.63
2022-08-25T12:01:48.189Z,100278.19
2022-08-25T12:07:29.425Z,100274.03
2022-08-25T12:12:37.631Z,100268.47
2022-08-25T12:17:40.841Z,100261.09
2022-08-25T12:22:57.429Z,100251.91
2022-08-25T12:28:09.365Z,100257.59
2022-08-25T12:33:17.273Z,100255.59
2022-08-25T12:38:31.734Z,100245.09
2022-08-25T12:43:37.807Z,100242.69
2022-08-25T12:49:00.232Z,100237.34
2022-08-25T12:54:15.891Z,100229.44
2022-08-25T12:59:23.736Z,100235.97
2022-08-25T13:04:43.759Z,100224.53
2022-08-25T13:10:12.093Z,100218.16
2022-08-25T13:15:17.068Z,100209.16
2022-08-25T13:20:23.618Z,100215.50
2022-08-25T13:25:32.786Z,100202.13
2022-08-25T13:30:39.141Z,100194.16
2022-08-25T13:35:49.546Z,100190.16
2022-08-25T13:41:09.230Z,100191.91
2022-08-25T13:46:12.435Z,100182.63
2022-08-25T13:51:24.278Z,100172.75
2022-08-25T13:56:41.173Z,100170.22
2022-08-25T14:01:49.659Z,100164.38
2022-08-25T14:07:08.389Z,100163.53
2022-08-25T14:12:31.358Z,100149.69
2022-08-25T14:17:39.707Z,100147.22
2022-08-25T14:22:43.220Z,100151.16
2022-08-25T14:28:13.751Z,100138.97
2022-08-25T14:33:18.125Z,100131.81
2022-08-25T14:38:23.337Z,100119.94
2022-08-25T14:43:32.003Z,100127.59
2022-08-25T14:48:38.348Z,100125.09
2022-08-25T14:53:42.014Z,100115.41
2022-08-25T14:58:51.252Z,100114.00
2022-08-25T15:03:59.173Z,100105.31
2022-08-25T15:09:11.883Z,100104.25
2022-08-25T15:14:17.388Z,100098.03
2022-08-25T15:19:22.043Z,100083.25
2022-08-25T15:24:26.354Z,100079.59
2022-08-25T15:29:31.938Z,100084.22
2022-08-25T15:34:35.728Z,100075.59
2022-08-25T15:39:39.875Z,100061.91
2022-08-25T15:44:53.397Z,100070.34
2022-08-25T15:50:05.799Z,100064.31
2022-08-25T15:55:09.991Z,100062.59
2022-08-25T16:00:16.732Z,100060.78
2022-08-25T16:05:25.689Z,100049.16
2022-08-25T16:10:28.742Z,100052.91
2022-08-25T16:15:33.447Z,100044.84
2022-08-25T16:20:37.167Z,100056.78
2022-08-25T16:25:41.656Z,100055.31
2022-08-25T16:30:52.687Z,100052.72
2022-08-25T16:36:06.570Z,100051.66
2022-08-25T16:41:10.527Z,100045.22
2022-08-25T16:46:18.197Z,100041.72
2022-08-25T16:51:29.439Z,100049.63
2022-08-25T16:56:35.121Z,100057.50
2022-08-25T17:01:40.838Z,100055.06
2022-08-25T17:06:51.525Z,100059.94
2022-08-25T17:11:57.057Z,100058.56
2022-08-25T17:17:01.398Z,100059.09
2022-08-25T17:22:04.269Z,100057.69
2022-08-25T17:27:09.213Z,100060.63
2022-08-25T17:32:13.348Z,100060.03
2022-08-25T17:37:17.124Z,100060.53
2022-08-25T17:42:20.849Z,100062.28
2022-08-25T17:47:25.130Z,100064.88
2022-08-25T17:52:27.878Z,100064.28
2022-08-25T17:57:30.555Z,100074.16
2022-08-25T18:02:34.939Z,100082.97
2022-08-25T18:07:37.835Z,100080.47
2022-08-25T18:12:40.869Z,100093.34
2022-08-25T18:17:47.779Z,100095.72
2022-08-25T18:22:50.762Z,100098.84
2022-08-25T18:27:54.455Z,100104.97
2022-08-25T18:33:00.061Z,100101.59
2022-08-25T18:38:21.197Z,100115.53
2022-08-25T18:43:24.038Z,100118.44
2022-08-25T18:48:28.694Z,100119.50
2022-08-25T18:53:37.041Z,100119.94
2022-08-25T18:58:40.807Z,100129.56
2022-08-25T19:03:45.485Z,100129.19
2022-08-25T19:08:48.655Z,100120.53
2022-08-25T19:13:51.709Z,100114.00
2022-08-25T19:18:56.589Z,100111.50
2022-08-25T19:24:01.140Z,100114.38
2022-08-25T19:29:09.090Z,100119.09
2022-08-25T19:34:15.994Z,100113.69
2022-08-25T19:39:20.116Z,100110.59
2022-08-25T19:44:23.360Z,100104.09
2022-08-25T19:49:31.819Z,100112.25
2022-08-25T19:54:37.997Z,100119.72
2022-08-25T19:59:47.334Z,100113.75
2022-08-25T20:04:55.583Z,100118.25
2022-08-25T20:09:59.917Z,100124.03
2022-08-25T20:15:03.066Z,100120.22
2022-08-25T20:20:10.103Z,100121.22
2022-08-25T20:25:17.651Z,100119.72
2022-08-25T20:30:23.524Z,100116.69
2022-08-25T20:35:29.193Z,100118.56
2022-08-25T20:40:32.593Z,100130.84
2022-08-25T20:45:35.503Z,100128.44
2022-08-25T20:50:40.786Z,100120.53
2022-08-25T20:55:44.029Z,100114.97
2022-08-25T21:00:48.245Z,100119.41
2022-08-25T21:05:53.477Z,100121.97
2022-08-25T21:10:57.146Z,100118.97
2022-08-25T21:16:02.664Z,100114.66
2022-08-25T21:21:14.024Z,100118.56
2022-08-25T21:26:18.601Z,100125.69
2022-08-25T21:31:22.744Z,100115.91
2022-08-25T21:36:29.732Z,100111.25
2022-08-25T21:41:34.185Z,100109.84
2022-08-25T21:46:37.727Z,100117.47
2022-08-25T21:51:43.488Z,100104.78
2022-08-25T21:56:49.843Z,100104.94
2022-08-25T22:01:56.262Z,100103.88
2022-08-25T22:07:01.152Z,100105.66
2022-08-25T22:12:06.222Z,100103.13
2022-08-25T22:17:12.369Z,100097.91
2022-08-25T22:22:20.958Z,100100.19
2022-08-25T22:27:24.083Z,100103.19
2022-08-25T22:32:26.881Z,100100.44
2022-08-25T22:37:30.971Z,100086.88
2022-08-25T22:42:37.346Z,100089.47
2022-08-25T22:47:41.219Z,100081.81
2022-08-25T22:52:45.411Z,100071.34
2022-08-25T22:57:48.441Z,100077.31
2022-08-25T23:02:53.189Z,100075.13
2022-08-25T23:07:57.642Z,100065.56
2022-08-25T23:13:00.495Z,100059.97
2022-08-25T23:18:03.477Z,100060.44
2022-08-25T23:23:08.072Z,100062.56
2022-08-25T23:28:11.095Z,100062.44
2022-08-25T23:33:15.537Z,100051.41
2022-08-25T23:38:23.153Z,100046.13
2022-08-25T23:43:26.618Z,100037.56
2022-08-25T23:48:30.553Z,100037.78
2022-08-25T23:53:35.462Z,100028.56
2022-08-25T23:58:38.370Z,100027.78
